Time;durP1;ratioP1;P1;durP2;ratioP2;P2;SDS_P1;SDS_P2;PMS_P1;PMS_P2;Temp;Humidity;BMP_temperature;BMP_pressure;BME280_temperature;BME280_humidity;BME280_pressure;Samples;Min_cycle;Max_cycle;Signal;HPM_P1;HPM_P2
2023/07/02 00:02:01;;;;;;;5.78;5.47;;;;;;;16.52;100.00;100320.44;6078277;23;20021;-70
2023/07/02 00:04:28;;;;;;;11.88;11.13;;;;;;;16.57;100.00;100321.84;5967351;23;20375;-70
2023/07/02 00:06:54;;;;;;;6.13;5.53;;;;;;;16.05;100.00;100242.28;6081870;23;20029;-68
2023/07/02 00:09:21;;;;;;;6.28;5.78;;;;;;;15.99;100.00;100229.56;6080811;23;20037;-68
2023/07/02 00:11:48;;;;;;;6.30;5.70;;;;;;;16.43;100.00;100301.81;6087288;23;20217;-70
2023/07/02 00:14:14;;;;;;;6.28;5.68;;;;;;;16.25;100.00;100261.81;6077606;23;20511;-70
2023/07/02 00:16:45;;;;;;;7.20;6.45;;;;;;;16.47;100.00;100290.81;6074905;23;20028;-68
2023/07/02 00:19:15;;;;;;;6.80;6.20;;;;;;;16.37;100.00;100267.91;6082994;23;20013;-70
2023/07/02 00:21:42;;;;;;;7.88;6.18;;;;;;;16.32;100.00;100255.88;6080367;23;20030;-69
2023/07/02 00:24:09;;;;;;;6.07;5.68;;;;;;;16.41;100.00;100258.72;6083812;23;20014;-69
2023/07/02 00:26:40;;;;;;;7.93;6.30;;;;;;;16.25;100.00;100236.16;6079942;23;20636;-70
2023/07/02 00:29:09;;;;;;;7.80;6.43;;;;;;;16.33;100.00;100265.50;6085781;23;20681;-70
2023/07/02 00:31:35;;;;;;;6.55;6.13;;;;;;;16.31;100.00;100248.06;6079464;23;20554;-69
2023/07/02 00:34:02;;;;;;;8.18;6.55;;;;;;;16.30;100.00;100252.53;6081095;23;20556;-69
2023/07/02 00:36:29;;;;;;;7.18;6.57;;;;;;;16.33;100.00;100254.06;6084683;23;20365;-71
2023/07/02 00:38:57;;;;;;;6.60;6.20;;;;;;;16.13;100.00;100229.25;6081510;23;20033;-70
2023/07/02 00:41:23;;;;;;;6.60;6.15;;;;;;;16.04;100.00;100198.25;6078087;23;20752;-69
2023/07/02 00:43:54;;;;;;;8.02;7.28;;;;;;;16.31;100.00;100229.53;6083566;23;20043;-68
2023/07/02 00:46:21;;;;;;;9.57;6.40;;;;;;;16.26;100.00;100235.22;6083004;23;20034;-68
2023/07/02 00:48:52;;;;;;;6.95;6.25;;;;;;;16.22;100.00;100239.09;6078068;23;20484;-68
2023/07/02 00:51:24;;;;;;;9.55;6.57;;;;;;;16.21;100.00;100239.19;6080539;23;20032;-70
2023/07/02 00:53:53;;;;;;;8.38;6.43;;;;;;;16.17;100.00;100229.84;6063265;23;20070;-70
2023/07/02 00:56:19;;;;;;;10.90;6.57;;;;;;;16.14;100.00;100230.94;6086032;23;20145;-70
2023/07/02 00:58:48;;;;;;;8.02;6.78;;;;;;;16.12;100.00;100230.22;6081629;23;20028;-71
2023/07/02 01:01:16;;;;;;;6.60;6.00;;;;;;;15.96;100.00;100204.19;6084934;23;20463;-68
2023/07/02 01:03:53;;;;;;;7.13;6.45;;;;;;;16.11;100.00;100224.06;6046140;23;20474;-69
2023/07/02 01:06:26;;;;;;;7.63;6.80;;;;;;;16.06;100.00;100230.75;6082523;23;20053;-70
2023/07/02 01:09:04;;;;;;;7.47;6.75;;;;;;;15.85;100.00;100194.47;6076575;23;20022;-70
2023/07/02 01:11:41;;;;;;;7.63;6.93;;;;;;;15.99;100.00;100226.91;6051653;23;20784;-70
2023/07/02 01:14:14;;;;;;;9.43;7.10;;;;;;;15.95;100.00;100224.50;6080172;23;20026;-69
2023/07/02 01:16:43;;;;;;;7.70;7.00;;;;;;;15.92;100.00;100226.59;6084931;23;20088;-69
2023/07/02 01:19:21;;;;;;;7.00;6.28;;;;;;;15.61;100.00;100172.66;6084437;23;20495;-68
2023/07/02 01:21:49;;;;;;;6.95;6.28;;;;;;;15.90;100.00;100210.81;6080727;23;20023;-68
2023/07/02 01:24:16;;;;;;;7.88;7.13;;;;;;;15.79;100.00;100194.97;6082183;23;20024;-70
2023/07/02 01:26:45;;;;;;;6.95;6.35;;;;;;;15.82;100.00;100197.38;6083680;23;20107;-69
2023/07/02 01:29:18;;;;;;;7.75;6.97;;;;;;;15.58;100.00;100159.69;6085076;23;20014;-69
2023/07/02 01:31:46;;;;;;;12.18;7.10;;;;;;;15.91;100.00;100216.94;6081662;23;20018;-69
2023/07/02 01:34:14;;;;;;;8.65;7.47;;;;;;;15.86;100.00;100206.75;6101471;23;20091;-70
2023/07/02 01:36:41;;;;;;;8.73;6.85;;;;;;;15.65;100.00;100184.66;6087677;23;20127;-69
2023/07/02 01:39:07;;;;;;;9.55;7.38;;;;;;;15.23;100.00;100116.63;6055990;23;20022;-70
2023/07/02 01:41:44;;;;;;;13.15;7.88;;;;;;;15.48;100.00;100165.72;6076333;23;20034;-70
2023/07/02 01:44:11;;;;;;;8.95;6.80;;;;;;;15.76;100.00;100211.13;6081159;23;20088;-70
2023/07/02 01:46:37;;;;;;;13.63;8.40;;;;;;;15.71;100.00;100210.63;6078842;23;20038;-69
2023/07/02 01:49:03;;;;;;;10.35;7.13;;;;;;;15.54;100.00;100199.59;6079744;23;20033;-69
2023/07/02 01:51:30;;;;;;;13.10;7.80;;;;;;;15.59;100.00;100208.97;6085373;23;20036;-69
2023/07/02 01:53:56;;;;;;;9.18;7.10;;;;;;;15.46;100.00;100196.75;6089223;23;20046;-71
2023/07/02 01:56:23;;;;;;;8.45;7.57;;;;;;;15.58;100.00;100216.06;6091117;23;20033;-70
2023/07/02 01:58:49;;;;;;;15.82;7.13;;;;;;;15.55;100.00;100217.16;6107615;23;20079;-69
2023/07/02 02:01:15;;;;;;;7.68;6.97;;;;;;;15.48;100.00;100215.97;6092119;23;20026;-70
2023/07/02 02:03:42;;;;;;;9.90;7.60;;;;;;;15.40;100.00;100231.63;6091358;23;20037;-69
2023/07/02 02:06:08;;;;;;;10.32;8.20;;;;;;;15.32;100.00;100228.75;6090344;23;20024;-69
2023/07/02 02:08:35;;;;;;;14.75;8.02;;;;;;;15.02;100.00;100187.91;6089119;23;20037;-69
2023/07/02 02:11:01;;;;;;;15.23;7.85;;;;;;;14.99;100.00;100190.78;6090566;23;20025;-69
2023/07/02 02:13:28;;;;;;;12.15;8.55;;;;;;;14.19;100.00;100093.97;6092019;23;20025;-70
2023/07/02 02:15:54;;;;;;;8.10;7.13;;;;;;;14.95;100.00;100198.13;6089354;23;20323;-70
2023/07/02 02:18:21;;;;;;;8.23;6.93;;;;;;;14.52;100.00;100131.94;6091479;23;20571;-70
2023/07/02 02:20:49;;;;;;;16.58;8.27;;;;;;;14.60;100.00;100160.44;6085108;23;20101;-70
2023/07/02 02:23:16;;;;;;;8.80;8.00;;;;;;;14.95;100.00;100235.13;6087440;23;20029;-69
2023/07/02 02:25:42;;;;;;;9.30;7.38;;;;;;;14.95;100.00;100235.13;6067830;23;20022;-70
2023/07/02 02:28:09;;;;;;;10.98;8.35;;;;;;;14.96;100.00;100251.81;6088426;23;20014;-69
2023/07/02 02:30:36;;;;;;;13.75;8.10;;;;;;;14.87;100.00;100236.66;6085265;23;20022;-70
2023/07/02 02:33:03;;;;;;;9.43;7.88;;;;;;;14.90;100.00;100262.88;6066869;23;20053;-69
2023/07/02 02:35:29;;;;;;;13.05;8.07;;;;;;;14.56;100.00;100226.66;6091617;23;20460;-71
2023/07/02 02:37:55;;;;;;;13.85;8.30;;;;;;;14.84;100.00;100271.25;6091989;23;20026;-69
2023/07/02 02:40:22;;;;;;;10.52;7.95;;;;;;;14.80;100.00;100269.81;6087971;23;20034;-69
2023/07/02 02:42:48;;;;;;;10.77;7.57;;;;;;;14.65;100.00;100256.81;6092095;23;20022;-69
2023/07/02 02:45:14;;;;;;;11.32;8.93;;;;;;;14.76;100.00;100280.59;6089714;23;20195;-69
2023/07/02 02:47:41;;;;;;;9.07;8.02;;;;;;;14.78;100.00;100284.94;6086254;23;20076;-70
2023/07/02 02:50:09;;;;;;;9.18;7.80;;;;;;;14.61;100.00;100252.72;6084924;23;20017;-69
2023/07/02 02:52:36;;;;;;;12.48;8.20;;;;;;;14.57;100.00;100256.53;6086565;23;20034;-71
2023/07/02 02:55:02;;;;;;;11.48;8.57;;;;;;;14.72;100.00;100275.69;6090681;23;20017;-71
2023/07/02 02:57:29;;;;;;;11.70;8.15;;;;;;;14.71;100.00;100280.13;6086563;23;20029;-69
2023/07/02 02:59:55;;;;;;;14.02;7.32;;;;;;;14.32;100.00;100221.41;6088212;23;20509;-70
2023/07/02 03:02:21;;;;;;;10.82;8.23;;;;;;;14.49;100.00;100272.09;6059533;23;20078;-69
2023/07/02 03:04:49;;;;;;;9.60;7.90;;;;;;;14.55;100.00;100279.56;6079812;23;20596;-69
2023/07/02 03:07:16;;;;;;;12.90;8.13;;;;;;;14.54;100.00;100296.38;6084002;23;20053;-70
2023/07/02 03:09:42;;;;;;;10.20;7.63;;;;;;;14.61;100.00;100310.81;6074355;23;20136;-69
2023/07/02 03:12:09;;;;;;;17.73;8.98;;;;;;;14.45;100.00;100281.22;6085656;23;20033;-69
2023/07/02 03:14:35;;;;;;;9.88;8.27;;;;;;;14.60;100.00;100292.47;6084884;23;20036;-70
2023/07/02 03:17:03;;;;;;;10.82;7.88;;;;;;;14.13;100.00;100227.25;6083233;23;20033;-69
2023/07/02 03:19:29;;;;;;;20.30;9.73;;;;;;;14.64;100.00;100310.59;6060470;23;20052;-70
2023/07/02 03:21:55;;;;;;;15.35;8.27;;;;;;;14.43;100.00;100277.84;6084349;23;20045;-70
2023/07/02 03:24:22;;;;;;;16.23;8.82;;;;;;;14.68;100.00;100309.41;6086756;23;20019;-70
2023/07/02 03:26:48;;;;;;;20.17;8.95;;;;;;;14.55;100.00;100279.56;6084370;23;20029;-69
2023/07/02 03:29:15;;;;;;;17.92;8.88;;;;;;;14.76;100.00;100314.13;6082188;23;20006;-69
2023/07/02 03:31:42;;;;;;;11.43;8.57;;;;;;;14.75;100.00;100313.28;6081787;23;20112;-70
2023/07/02 03:34:09;;;;;;;15.93;7.95;;;;;;;14.80;100.00;100314.72;6064184;23;20338;-69
2023/07/02 03:36:37;;;;;;;13.25;8.43;;;;;;;14.81;100.00;100326.97;6103970;23;20026;-70
2023/07/02 03:39:04;;;;;;;12.18;8.07;;;;;;;14.36;100.00;100241.34;6056132;23;20054;-69
2023/07/02 03:41:34;;;;;;;15.85;8.82;;;;;;;14.90;100.00;100318.34;6077451;23;20033;-71
2023/07/02 03:44:01;;;;;;;11.27;8.48;;;;;;;14.87;100.00;100322.03;6085687;23;20025;-70
2023/07/02 03:46:27;;;;;;;14.68;8.23;;;;;;;14.58;100.00;100270.63;6083237;23;20018;-71
2023/07/02 03:48:54;;;;;;;10.95;8.55;;;;;;;14.93;100.00;100340.09;6081874;23;20041;-69
2023/07/02 03:51:20;;;;;;;13.00;8.77;;;;;;;14.64;100.00;100276.25;6080715;23;20099;-69
2023/07/02 03:53:46;;;;;;;13.45;8.45;;;;;;;14.78;100.00;100301.63;6086104;23;20033;-69
2023/07/02 03:56:13;;;;;;;20.88;8.63;;;;;;;15.04;100.00;100338.44;6083127;23;20024;-69
2023/07/02 03:58:40;;;;;;;18.67;9.32;;;;;;;14.94;100.00;100318.00;6079055;23;20026;-68
2023/07/02 04:01:06;;;;;;;10.50;8.27;;;;;;;15.08;100.00;100337.25;6085226;23;20552;-69
2023/07/02 04:03:33;;;;;;;16.48;9.48;;;;;;;14.84;100.00;100297.69;6080386;23;20026;-70
2023/07/02 04:05:59;;;;;;;16.35;8.90;;;;;;;14.71;100.00;100285.41;6080221;23;20028;-69
2023/07/02 04:08:28;;;;;;;11.68;8.43;;;;;;;15.12;100.00;100344.81;6054701;23;20026;-69
2023/07/02 04:10:54;;;;;;;13.27;8.70;;;;;;;15.23;100.00;100359.81;6105976;23;20052;-70
2023/07/02 04:13:21;;;;;;;14.45;9.38;;;;;;;15.15;100.00;100341.06;6053302;23;21402;-69
2023/07/02 04:15:47;;;;;;;13.35;8.50;;;;;;;15.03;100.00;100311.13;6082069;23;20026;-70
2023/07/02 04:18:13;;;;;;;20.40;9.05;;;;;;;15.33;100.00;100360.81;6085074;23;20013;-70
2023/07/02 04:20:40;;;;;;;16.23;8.88;;;;;;;15.37;100.00;100369.34;6086373;23;20013;-69
2023/07/02 04:23:06;;;;;;;17.67;9.40;;;;;;;15.16;100.00;100325.09;6088950;23;20033;-69
2023/07/02 04:25:33;;;;;;;19.95;10.68;;;;;;;15.49;100.00;100368.38;6079237;23;20626;-69
2023/07/02 04:28:19;;;;;;;13.82;8.95;;;;;;;15.61;100.00;100373.69;6080866;23;20105;-68
2023/07/02 04:30:49;;;;;;;13.90;8.85;;;;;;;15.22;100.00;100299.16;6083002;23;20055;-69
2023/07/02 04:33:17;;;;;;;22.75;10.32;;;;;;;15.31;100.00;100306.34;6053006;23;20014;-70
2023/07/02 04:35:44;;;;;;;22.52;10.70;;;;;;;15.75;100.00;100360.22;6083675;23;20585;-70
2023/07/02 04:38:10;;;;;;;16.48;9.93;;;;;;;15.78;100.00;100359.16;6084754;23;20022;-70
2023/07/02 04:40:36;;;;;;;15.60;10.20;;;;;;;15.71;100.00;100332.31;6079970;23;20061;-69
2023/07/02 04:43:03;;;;;;;15.23;9.10;;;;;;;15.96;100.00;100362.97;6080613;23;20032;-69
2023/07/02 04:45:33;;;;;;;17.90;9.40;;;;;;;15.83;100.00;100326.06;6081853;23;20022;-70
2023/07/02 04:48:00;;;;;;;20.67;9.90;;;;;;;15.67;100.00;100304.41;6079307;23;22152;-69
2023/07/02 04:50:27;;;;;;;17.13;11.02;;;;;;;16.00;100.00;100367.06;6078952;23;20089;-69
2023/07/02 04:52:55;;;;;;;13.50;9.23;;;;;;;16.03;100.00;100360.69;6080607;23;20018;-69
2023/07/02 04:55:22;;;;;;;24.13;10.65;;;;;;;15.99;100.00;100349.50;6083642;23;20043;-70
2023/07/02 04:57:48;;;;;;;17.25;10.02;;;;;;;16.15;100.00;100354.38;6079948;23;20036;-69
2023/07/02 05:00:15;;;;;;;17.70;9.57;;;;;;;16.24;100.00;100332.47;6082539;23;20408;-70
2023/07/02 05:02:41;;;;;;;20.38;9.90;;;;;;;16.74;99.02;100358.41;6079036;23;20026;-70
2023/07/02 05:05:08;;;;;;;22.65;10.88;;;;;;;16.71;95.55;100313.59;6077223;23;20835;-69
2023/07/02 05:07:36;;;;;;;16.88;10.07;;;;;;;17.00;94.01;100347.41;6053945;23;20026;-70
2023/07/02 05:10:03;;;;;;;14.90;10.13;;;;;;;16.53;94.06;100285.00;6083645;23;20843;-70
2023/07/02 05:12:30;;;;;;;18.90;10.05;;;;;;;16.79;94.33;100340.28;6083461;23;20030;-69
2023/07/02 05:14:56;;;;;;;15.10;10.00;;;;;;;16.88;94.47;100351.97;6079662;23;20438;-69
2023/07/02 05:17:23;;;;;;;17.02;10.77;;;;;;;16.80;95.08;100349.94;6084299;23;20089;-70
2023/07/02 05:19:49;;;;;;;18.35;10.57;;;;;;;16.79;94.87;100360.66;6084030;23;20059;-69
2023/07/02 05:22:16;;;;;;;23.23;10.73;;;;;;;16.87;95.42;100367.00;6078167;23;20484;-71
2023/07/02 05:24:46;;;;;;;20.08;9.73;;;;;;;16.71;94.67;100322.38;6083691;23;20071;-71
2023/07/02 05:27:12;;;;;;;13.98;9.75;;;;;;;16.99;93.71;100357.19;6084787;23;20128;-71
2023/07/02 05:29:39;;;;;;;19.85;10.13;;;;;;;17.21;94.33;100361.50;6078470;23;20041;-69
2023/07/02 05:32:05;;;;;;;17.17;10.40;;;;;;;16.43;91.37;100177.34;6074991;23;20089;-69
2023/07/02 05:34:33;;;;;;;19.35;10.10;;;;;;;17.45;89.83;100296.69;6078177;23;20523;-70
2023/07/02 05:37:00;;;;;;;18.90;11.52;;;;;;;17.59;87.95;100308.75;6083235;23;20020;-70
2023/07/02 05:39:26;;;;;;;12.68;9.77;;;;;;;17.61;88.39;100326.22;6080470;23;20030;-70
2023/07/02 05:41:53;;;;;;;20.05;10.18;;;;;;;18.00;86.55;100323.72;6083314;23;20029;-70
2023/07/02 05:44:20;;;;;;;24.52;11.00;;;;;;;17.94;85.05;100292.38;6079356;23;20077;-70
2023/07/02 05:46:46;;;;;;;21.67;10.85;;;;;;;18.23;84.54;100305.69;6079611;23;20059;-70
2023/07/02 05:49:12;;;;;;;17.35;10.18;;;;;;;18.09;82.86;100275.06;6080105;23;20027;-70
2023/07/02 05:51:39;;;;;;;21.65;10.57;;;;;;;18.12;82.70;100279.25;6078181;23;20604;-70
2023/07/02 05:54:06;;;;;;;20.10;10.18;;;;;;;17.80;83.34;100239.66;6078104;23;20069;-69
2023/07/02 05:56:32;;;;;;;16.15;10.85;;;;;;;18.15;82.72;100260.41;6051204;23;20470;-70
2023/07/02 05:58:59;;;;;;;21.58;9.63;;;;;;;18.12;81.24;100224.34;6083996;23;20014;-70
2023/07/02 06:01:25;;;;;;;21.83;10.57;;;;;;;18.36;80.72;100267.38;6072671;23;20029;-70
2023/07/02 06:03:52;;;;;;;21.67;10.77;;;;;;;18.35;79.92;100250.59;6053919;23;20037;-69
2023/07/02 06:06:18;;;;;;;18.52;9.70;;;;;;;18.59;79.03;100244.81;6077539;23;20081;-70
2023/07/02 06:08:45;;;;;;;18.73;9.85;;;;;;;18.88;77.59;100217.34;6078719;23;20601;-69
2023/07/02 06:11:12;;;;;;;13.77;10.27;;;;;;;19.01;74.12;100151.38;6079983;23;20022;-70
2023/07/02 06:13:38;;;;;;;16.13;9.82;;;;;;;19.28;73.29;100185.13;6076002;23;20038;-70
2023/07/02 06:16:05;;;;;;;15.55;10.27;;;;;;;19.06;74.04;100185.50;6082184;23;20104;-70
2023/07/02 06:18:31;;;;;;;16.80;9.60;;;;;;;18.62;73.92;100162.16;6078850;23;20036;-71
2023/07/02 06:20:58;;;;;;;20.70;10.45;;;;;;;18.84;74.22;100202.66;6081395;23;20088;-70
2023/07/02 06:23:25;;;;;;;17.48;9.85;;;;;;;18.91;75.08;100207.25;6062583;23;20046;-69
2023/07/02 06:25:58;;;;;;;23.00;10.23;;;;;;;19.30;74.70;100209.75;6079601;23;20497;-70
2023/07/02 06:28:26;;;;;;;15.75;10.07;;;;;;;19.38;73.89;100216.13;6077851;23;20053;-69
2023/07/02 06:30:52;;;;;;;20.40;11.82;;;;;;;19.23;74.33;100213.97;6079052;23;20019;-69
2023/07/02 06:33:19;;;;;;;18.38;10.13;;;;;;;19.12;73.88;100192.88;6080328;23;20026;-69
2023/07/02 06:35:45;;;;;;;20.77;10.20;;;;;;;18.84;74.09;100179.59;6102748;23;20535;-70
2023/07/02 06:38:12;;;;;;;20.40;10.43;;;;;;;18.88;74.49;100199.59;6078318;23;20511;-69
2023/07/02 06:40:38;;;;;;;20.40;10.13;;;;;;;18.93;75.03;100225.75;6082598;23;20030;-70
2023/07/02 06:43:05;;;;;;;18.10;9.88;;;;;;;19.04;75.02;100227.38;6057525;23;20556;-69
2023/07/02 06:45:31;;;;;;;18.85;10.60;;;;;;;19.08;74.44;100221.63;6089014;23;20022;-70
2023/07/02 06:47:57;;;;;;;11.70;8.90;;;;;;;19.50;73.91;100233.56;6052089;23;20120;-69
2023/07/02 06:50:24;;;;;;;14.95;10.23;;;;;;;19.02;70.79;100086.56;6086063;23;20029;-69
2023/07/02 06:52:50;;;;;;;17.80;10.38;;;;;;;19.38;71.04;100134.47;6083203;23;20071;-69
2023/07/02 06:55:17;;;;;;;13.52;10.23;;;;;;;18.72;69.98;100061.94;6083388;23;20017;-69
2023/07/02 06:57:45;;;;;;;19.70;10.20;;;;;;;18.96;69.62;100057.06;6058038;23;20022;-69
2023/07/02 07:00:15;;;;;;;24.20;11.00;;;;;;;19.59;69.41;100133.38;6084097;23;20021;-70
2023/07/02 07:02:41;;;;;;;22.80;9.95;;;;;;;19.44;68.10;100104.59;6083965;23;20519;-69
2023/07/02 07:05:09;;;;;;;20.23;10.05;;;;;;;19.53;67.97;100101.03;6078243;23;20547;-70
2023/07/02 07:07:36;;;;;;;12.48;9.05;;;;;;;19.85;68.65;100152.94;6081707;23;20010;-69
2023/07/02 07:10:03;;;;;;;15.73;9.82;;;;;;;19.82;66.94;100054.69;6082709;23;20037;-68
2023/07/02 07:12:30;;;;;;;14.70;9.50;;;;;;;20.09;65.53;100060.88;6079689;23;20021;-69
2023/07/02 07:14:56;;;;;;;19.13;10.30;;;;;;;20.23;65.15;100051.47;6087630;23;20614;-69
2023/07/02 07:17:22;;;;;;;14.60;9.68;;;;;;;20.71;64.46;100092.69;6081788;23;20018;-69
2023/07/02 07:19:49;;;;;;;21.48;9.30;;;;;;;20.95;63.42;100045.75;6086159;23;20045;-69
2023/07/02 07:22:15;;;;;;;15.70;9.40;;;;;;;20.72;61.79;99969.84;6047811;23;20025;-70
2023/07/02 07:24:42;;;;;;;13.77;9.43;;;;;;;20.52;63.37;100032.44;6083543;23;20466;-70
2023/07/02 07:27:08;;;;;;;14.40;9.65;;;;;;;20.83;62.35;100023.91;6082477;23;20018;-69
2023/07/02 07:29:35;;;;;;;19.38;9.88;;;;;;;20.88;61.62;99995.72;6082282;23;20026;-70
2023/07/02 07:32:01;;;;;;;23.02;9.63;;;;;;;20.94;62.06;100002.25;6078778;23;20022;-69
2023/07/02 07:34:28;;;;;;;16.10;9.20;;;;;;;20.81;59.79;99920.06;6081452;23;20041;-69
2023/07/02 07:36:54;;;;;;;16.88;9.05;;;;;;;21.00;58.34;99870.03;6054552;23;20837;-70
2023/07/02 07:39:20;;;;;;;14.85;8.63;;;;;;;20.87;58.04;99876.72;6083970;23;20018;-70
2023/07/02 07:41:48;;;;;;;15.82;8.57;;;;;;;20.44;57.59;99809.34;6057665;23;20029;-70
2023/07/02 07:44:14;;;;;;;13.07;9.55;;;;;;;21.26;58.34;99947.22;6085386;23;20045;-70
2023/07/02 07:46:43;;;;;;;10.95;8.50;;;;;;;20.43;57.97;99829.00;6084915;23;20048;-69
2023/07/02 07:49:10;;;;;;;11.88;8.48;;;;;;;20.66;59.03;99909.19;6057691;23;20018;-69
2023/07/02 07:51:36;;;;;;;17.58;8.93;;;;;;;21.17;58.83;99966.91;6085417;23;20029;-72
2023/07/02 07:54:03;;;;;;;13.60;9.02;;;;;;;21.11;58.82;99950.56;6082917;23;20412;-69
2023/07/02 07:56:29;;;;;;;10.35;8.52;;;;;;;21.16;59.25;99991.94;6098364;23;20074;-70
2023/07/02 07:58:56;;;;;;;14.60;8.68;;;;;;;21.29;58.40;99969.09;6080429;23;20019;-71
2023/07/02 08:01:25;;;;;;;13.13;8.73;;;;;;;21.21;58.50;99977.09;6055758;23;20683;-70
2023/07/02 08:03:52;;;;;;;12.90;9.15;;;;;;;20.66;58.27;99935.84;6085478;23;20611;-69
2023/07/02 08:06:18;;;;;;;10.93;8.75;;;;;;;20.49;59.25;99963.47;6086613;23;20014;-69
2023/07/02 08:08:45;;;;;;;17.23;9.77;;;;;;;20.41;59.03;99971.44;6083678;23;20496;-68
2023/07/02 08:11:11;;;;;;;14.10;9.00;;;;;;;20.44;56.68;99857.31;6081815;23;20061;-68
2023/07/02 08:13:38;;;;;;;19.38;9.35;;;;;;;20.65;56.89;99904.88;6079011;23;20029;-69
2023/07/02 08:16:05;;;;;;;14.65;9.82;;;;;;;20.65;57.92;99955.53;6108110;23;20687;-69
2023/07/02 08:18:31;;;;;;;16.00;9.15;;;;;;;21.33;56.75;99982.94;6086267;23;20345;-69
2023/07/02 08:20:57;;;;;;;14.20;9.50;;;;;;;21.24;56.84;99962.56;6085981;23;20085;-69
2023/07/02 08:23:24;;;;;;;14.05;8.73;;;;;;;21.67;55.12;99940.03;6078708;23;20031;-70
2023/07/02 08:25:50;;;;;;;13.77;8.90;;;;;;;21.70;53.48;99838.19;6059114;23;20844;-69
2023/07/02 08:28:17;;;;;;;10.95;9.10;;;;;;;21.89;52.24;99855.66;6073204;23;20014;-70
2023/07/02 08:30:43;;;;;;;16.50;9.23;;;;;;;21.20;53.54;99825.16;6053242;23;20026;-70
2023/07/02 08:33:09;;;;;;;10.73;8.45;;;;;;;21.47;53.99;99933.41;6085681;23;20168;-70
2023/07/02 08:35:36;;;;;;;14.00;8.90;;;;;;;21.47;54.18;99912.06;6085158;23;20022;-70
2023/07/02 08:38:02;;;;;;;15.80;9.63;;;;;;;21.81;54.65;100034.66;6056985;23;20205;-69
2023/07/02 08:40:28;;;;;;;12.88;9.05;;;;;;;21.50;54.47;99941.88;6084210;23;20033;-70
2023/07/02 08:42:55;;;;;;;14.77;8.50;;;;;;;21.74;53.91;99942.84;6082238;23;20026;-69
2023/07/02 08:45:25;;;;;;;18.23;9.23;;;;;;;21.30;52.19;99825.78;6057929;23;20487;-70
2023/07/02 08:47:56;;;;;;;12.25;8.98;;;;;;;21.38;54.47;99980.59;6082345;23;20096;-69
2023/07/02 08:50:23;;;;;;;17.40;9.90;;;;;;;21.22;54.74;99959.25;6058179;23;20034;-69
2023/07/02 08:52:50;;;;;;;24.52;10.82;;;;;;;21.65;55.97;100074.69;6078341;23;20028;-70
2023/07/02 08:55:16;;;;;;;13.32;10.48;;;;;;;20.97;55.26;99929.03;6082807;23;20666;-69
2023/07/02 08:57:49;;;;;;;16.27;9.18;;;;;;;20.18;55.26;99816.66;6077885;23;20073;-69
2023/07/02 09:00:16;;;;;;;14.73;9.32;;;;;;;20.79;55.82;99956.72;6082330;23;20040;-69
2023/07/02 09:02:43;;;;;;;14.10;9.10;;;;;;;20.97;56.07;100006.41;6060458;23;20088;-69
2023/07/02 09:05:09;;;;;;;11.95;9.43;;;;;;;20.74;56.09;99974.22;6082852;23;20075;-70
2023/07/02 09:07:46;;;;;;;13.82;9.63;;;;;;;20.16;59.13;100066.41;6079930;23;20010;-69
2023/07/02 09:10:26;;;;;;;18.73;8.73;;;;;;;20.17;60.12;100095.56;6076734;23;20437;-69
2023/07/02 09:13:03;;;;;;;18.33;10.27;;;;;;;20.89;59.46;100178.78;6081066;23;20592;-69
2023/07/02 09:15:46;;;;;;;15.18;8.73;;;;;;;20.63;59.52;100130.81;6085210;23;20045;-69
2023/07/02 09:18:24;;;;;;;16.73;8.52;;;;;;;20.33;58.49;100047.69;6062095;23;20479;-69
2023/07/02 09:20:53;;;;;;;10.25;9.07;;;;;;;20.44;59.78;100147.00;6082438;23;20036;-69
2023/07/02 09:23:20;;;;;;;14.20;10.10;;;;;;;20.41;57.91;100049.56;6083749;23;20022;-69
2023/07/02 09:25:47;;;;;;;11.73;9.20;;;;;;;20.45;58.21;100084.72;6084680;23;20060;-69
2023/07/02 09:28:18;;;;;;;14.70;9.10;;;;;;;20.80;57.69;100096.22;6085517;23;20028;-69
2023/07/02 09:30:53;;;;;;;15.07;9.68;;;;;;;21.42;56.44;100117.22;6082776;23;20083;-70
2023/07/02 09:33:24;;;;;;;17.00;9.80;;;;;;;21.94;55.20;100082.22;6106655;23;20032;-69
2023/07/02 09:35:51;;;;;;;11.45;8.65;;;;;;;21.90;54.20;100060.34;6061619;23;20049;-70
2023/07/02 09:38:19;;;;;;;15.80;8.95;;;;;;;21.66;54.58;100065.72;6084756;23;20039;-69
2023/07/02 09:40:50;;;;;;;19.13;9.27;;;;;;;21.40;56.08;100081.84;6079979;23;20030;-68
2023/07/02 09:43:21;;;;;;;15.13;9.90;;;;;;;20.83;58.10;100093.25;6074663;23;20535;-69
2023/07/02 09:45:50;;;;;;;17.20;10.07;;;;;;;20.87;58.49;100158.59;6079886;23;20038;-71
2023/07/02 09:48:22;;;;;;;14.07;9.32;;;;;;;19.74;58.19;99966.78;6083604;23;20017;-70
2023/07/02 09:50:49;;;;;;;13.13;9.40;;;;;;;20.69;58.42;100116.84;6054590;23;20046;-70
2023/07/02 09:53:16;;;;;;;21.20;9.68;;;;;;;21.32;56.70;100126.22;6082453;23;20075;-68
2023/07/02 09:55:43;;;;;;;14.38;10.35;;;;;;;20.91;57.55;100103.94;6084414;23;20450;-70
2023/07/02 09:58:11;;;;;;;16.20;8.82;;;;;;;20.84;57.70;100118.91;6078428;23;20018;-69
2023/07/02 10:00:39;;;;;;;12.30;8.60;;;;;;;21.43;58.42;100220.34;6074771;23;20037;-68
2023/07/02 10:03:05;;;;;;;12.52;9.32;;;;;;;22.04;57.06;100218.31;6080989;23;20096;-70
2023/07/02 10:05:33;;;;;;;14.02;9.27;;;;;;;22.66;56.05;100220.47;6085705;23;20571;-69
2023/07/02 10:08:21;;;;;;;16.60;10.15;;;;;;;22.44;53.36;100046.34;6081685;23;20026;-69
2023/07/02 10:10:48;;;;;;;13.77;9.48;;;;;;;22.06;53.70;99979.31;6079736;23;20030;-69
2023/07/02 10:13:26;;;;;;;13.68;9.10;;;;;;;21.85;54.86;100038.66;6080780;23;20017;-69
2023/07/02 10:16:01;;;;;;;13.85;8.75;;;;;;;21.87;54.92;100084.72;6080985;23;20034;-70
2023/07/02 10:18:27;;;;;;;14.85;10.05;;;;;;;21.90;55.07;100111.09;6064986;23;20022;-68
2023/07/02 10:20:54;;;;;;;12.88;9.38;;;;;;;22.02;54.07;100068.00;6086058;23;20030;-69
2023/07/02 10:23:20;;;;;;;17.20;9.38;;;;;;;22.02;53.05;99996.69;6065068;23;20038;-68
2023/07/02 10:25:47;;;;;;;10.85;9.52;;;;;;;22.16;51.52;99964.91;6088823;23;20038;-68
2023/07/02 10:28:19;;;;;;;14.85;10.27;;;;;;;20.94;53.48;99858.19;6087505;23;20014;-68
2023/07/02 10:30:45;;;;;;;14.85;9.70;;;;;;;21.92;53.55;100066.34;6089293;23;20095;-69
2023/07/02 10:33:14;;;;;;;16.23;9.93;;;;;;;21.85;53.92;100067.19;6059462;23;20097;-70
2023/07/02 10:35:44;;;;;;;13.63;9.65;;;;;;;22.42;51.72;100036.84;6087020;23;20134;-69
2023/07/02 10:38:28;;;;;;;16.20;9.60;;;;;;;22.44;51.09;99925.22;6084675;23;20033;-69
2023/07/02 10:40:56;;;;;;;11.57;9.18;;;;;;;21.64;51.97;99886.13;6061448;23;20491;-69
2023/07/02 10:43:31;;;;;;;16.10;9.02;;;;;;;21.28;53.92;99970.06;6091283;23;20490;-69
2023/07/02 10:46:02;;;;;;;14.07;9.13;;;;;;;20.35;55.89;99958.72;6082625;23;20059;-69
2023/07/02 10:48:30;;;;;;;13.45;9.70;;;;;;;20.23;57.41;100076.28;6089130;23;20043;-68
2023/07/02 10:50:57;;;;;;;14.63;9.48;;;;;;;20.42;57.50;100104.50;6062442;23;20480;-69
2023/07/02 10:53:24;;;;;;;17.27;8.50;;;;;;;19.97;58.36;100086.13;6087132;23;20021;-68
2023/07/02 10:55:55;;;;;;;9.00;8.07;;;;;;;20.35;57.52;100105.31;6085084;23;20033;-69
2023/07/02 10:58:24;;;;;;;9.98;7.93;;;;;;;20.49;56.45;100084.25;6086600;23;20065;-70
2023/07/02 11:00:52;;;;;;;8.88;7.97;;;;;;;20.60;55.52;100050.31;6059576;23;20025;-70
2023/07/02 11:03:23;;;;;;;12.65;7.93;;;;;;;20.76;55.50;100078.88;6087439;23;20033;-69
2023/07/02 11:05:50;;;;;;;11.87;7.97;;;;;;;21.07;54.76;100066.63;6081382;23;20025;-70
2023/07/02 11:08:21;;;;;;;8.45;7.43;;;;;;;21.18;54.54;100061.97;6062608;23;20295;-69
2023/07/02 11:10:47;;;;;;;11.63;8.52;;;;;;;21.09;54.67;100061.97;6110328;23;20085;-69
2023/07/02 11:13:18;;;;;;;14.32;8.80;;;;;;;20.89;53.46;99976.06;6086324;23;20106;-68
2023/07/02 11:15:48;;;;;;;9.88;8.23;;;;;;;20.29;54.31;99960.22;6084806;23;20057;-68
2023/07/02 11:18:17;;;;;;;12.18;8.52;;;;;;;20.68;55.38;100069.84;6090252;23;20099;-68